sensor_id;sensor_type;location;lat;lon;timestamp;temperature;humidity
65770;DHT22;52512;47.650;8.578;2023-05-21T00:02:17;15.00;99.90
65770;DHT22;52512;47.650;8.578;2023-05-21T00:04:44;14.90;99.90
65770;DHT22;52512;47.650;8.578;2023-05-21T00:07:10;14.90;99.90
65770;DHT22;52512;47.650;8.578;2023-05-21T00:09:36;14.90;99.90
65770;DHT22;52512;47.650;8.578;2023-05-21T00:12:06;14.90;99.90
65770;DHT22;52512;47.650;8.578;2023-05-21T00:14:33;14.90;99.90
65770;DHT22;52512;47.650;8.578;2023-05-21T00:16:58;14.90;99.90
65770;DHT22;52512;47.650;8.578;2023-05-21T00:19:24;14.90;99.90
65770;DHT22;52512;47.650;8.578;2023-05-21T00:21:51;14.90;99.90
65770;DHT22;52512;47.650;8.578;2023-05-21T00:24:17;14.90;99.90
65770;DHT22;52512;47.650;8.578;2023-05-21T00:26:43;14.80;99.90
65770;DHT22;52512;47.650;8.578;2023-05-21T00:29:08;14.80;99.90
65770;DHT22;52512;47.650;8.578;2023-05-21T00:31:34;14.80;99.90
65770;DHT22;52512;47.650;8.578;2023-05-21T00:33:59;14.80;99.90
65770;DHT22;52512;47.650;8.578;2023-05-21T00:36:25;14.80;99.90
65770;DHT22;52512;47.650;8.578;2023-05-21T00:38:51;14.70;99.90
65770;DHT22;52512;47.650;8.578;2023-05-21T00:41:17;14.70;99.90
65770;DHT22;52512;47.650;8.578;2023-05-21T00:43:43;14.70;99.90
65770;DHT22;52512;47.650;8.578;2023-05-21T00:46:13;14.70;99.90
65770;DHT22;52512;47.650;8.578;2023-05-21T00:48:41;14.70;99.90
65770;DHT22;52512;47.650;8.578;2023-05-21T00:51:08;14.60;99.90
65770;DHT22;52512;47.650;8.578;2023-05-21T00:53:34;14.60;99.90
65770;DHT22;52512;47.650;8.578;2023-05-21T00:56:03;14.60;99.90
65770;DHT22;52512;47.650;8.578;2023-05-21T00:58:29;14.60;99.90
65770;DHT22;52512;47.650;8.578;2023-05-21T01:00:55;14.60;99.90
65770;DHT22;52512;47.650;8.578;2023-05-21T01:03:24;14.60;99.90
65770;DHT22;52512;47.650;8.578;2023-05-21T01:05:50;14.60;99.90
65770;DHT22;52512;47.650;8.578;2023-05-21T01:08:20;14.60;99.90
65770;DHT22;52512;47.650;8.578;2023-05-21T01:10:49;14.60;99.90
65770;DHT22;52512;47.650;8.578;2023-05-21T01:13:15;14.60;99.90
65770;DHT22;52512;47.650;8.578;2023-05-21T01:15:45;14.50;99.90
65770;DHT22;52512;47.650;8.578;2023-05-21T01:18:12;14.50;99.90
65770;DHT22;52512;47.650;8.578;2023-05-21T01:20:39;14.50;99.90
65770;DHT22;52512;47.650;8.578;2023-05-21T01:23:07;14.50;99.90
65770;DHT22;52512;47.650;8.578;2023-05-21T01:25:33;14.40;99.90
65770;DHT22;52512;47.650;8.578;2023-05-21T01:27:59;14.40;99.90
65770;DHT22;52512;47.650;8.578;2023-05-21T01:30:25;14.40;99.90
65770;DHT22;52512;47.650;8.578;2023-05-21T01:33:14;14.40;99.90
65770;DHT22;52512;47.650;8.578;2023-05-21T01:35:46;14.40;99.90
65770;DHT22;52512;47.650;8.578;2023-05-21T01:38:28;14.40;99.90
65770;DHT22;52512;47.650;8.578;2023-05-21T01:41:17;14.40;99.90
65770;DHT22;52512;47.650;8.578;2023-05-21T01:43:44;14.40;99.90
65770;DHT22;52512;47.650;8.578;2023-05-21T01:46:14;14.30;99.90
65770;DHT22;52512;47.650;8.578;2023-05-21T01:48:42;14.30;99.90
65770;DHT22;52512;47.650;8.578;2023-05-21T01:51:08;14.30;99.90
65770;DHT22;52512;47.650;8.578;2023-05-21T01:53:34;14.30;99.90
65770;DHT22;52512;47.650;8.578;2023-05-21T01:56:03;14.30;99.90
65770;DHT22;52512;47.650;8.578;2023-05-21T01:58:29;14.30;99.90
65770;DHT22;52512;47.650;8.578;2023-05-21T02:00:55;14.30;99.90
65770;DHT22;52512;47.650;8.578;2023-05-21T02:03:25;14.30;99.90
65770;DHT22;52512;47.650;8.578;2023-05-21T02:05:51;14.30;99.90
65770;DHT22;52512;47.650;8.578;2023-05-21T02:08:17;14.30;99.90
65770;DHT22;52512;47.650;8.578;2023-05-21T02:10:44;14.30;99.90
65770;DHT22;52512;47.650;8.578;2023-05-21T02:13:10;14.20;99.90
65770;DHT22;52512;47.650;8.578;2023-05-21T02:15:36;14.20;99.90
65770;DHT22;52512;47.650;8.578;2023-05-21T02:18:02;14.20;99.90
65770;DHT22;52512;47.650;8.578;2023-05-21T02:20:28;14.20;99.90
65770;DHT22;52512;47.650;8.578;2023-05-21T02:22:54;14.20;99.90
65770;DHT22;52512;47.650;8.578;2023-05-21T02:25:20;14.20;99.90
65770;DHT22;52512;47.650;8.578;2023-05-21T02:27:45;14.20;99.90
65770;DHT22;52512;47.650;8.578;2023-05-21T02:30:13;14.10;99.90
65770;DHT22;52512;47.650;8.578;2023-05-21T02:32:40;14.10;99.90
65770;DHT22;52512;47.650;8.578;2023-05-21T02:35:07;14.10;99.90
65770;DHT22;52512;47.650;8.578;2023-05-21T02:37:34;14.10;99.90
65770;DHT22;52512;47.650;8.578;2023-05-21T02:40:01;14.10;99.90
65770;DHT22;52512;47.650;8.578;2023-05-21T02:42:28;14.10;99.90
65770;DHT22;52512;47.650;8.578;2023-05-21T02:44:54;14.10;99.90
65770;DHT22;52512;47.650;8.578;2023-05-21T02:47:20;14.10;99.90
65770;DHT22;52512;47.650;8.578;2023-05-21T02:49:48;14.10;99.90
65770;DHT22;52512;47.650;8.578;2023-05-21T02:52:15;14.00;99.90
65770;DHT22;52512;47.650;8.578;2023-05-21T02:54:43;14.00;99.90
65770;DHT22;52512;47.650;8.578;2023-05-21T02:57:08;14.00;99.90
65770;DHT22;52512;47.650;8.578;2023-05-21T02:59:34;14.00;99.90
65770;DHT22;52512;47.650;8.578;2023-05-21T03:02:00;14.00;99.90
65770;DHT22;52512;47.650;8.578;2023-05-21T03:04:25;14.00;99.90
65770;DHT22;52512;47.650;8.578;2023-05-21T03:06:53;14.00;99.90
65770;DHT22;52512;47.650;8.578;2023-05-21T03:09:22;13.90;99.90
65770;DHT22;52512;47.650;8.578;2023-05-21T03:11:49;13.90;99.90
65770;DHT22;52512;47.650;8.578;2023-05-21T03:14:14;13.90;99.90
65770;DHT22;52512;47.650;8.578;2023-05-21T03:16:41;13.90;99.90
65770;DHT22;52512;47.650;8.578;2023-05-21T03:19:08;13.90;99.90
65770;DHT22;52512;47.650;8.578;2023-05-21T03:21:34;13.90;99.90
65770;DHT22;52512;47.650;8.578;2023-05-21T03:24:01;13.80;99.90
65770;DHT22;52512;47.650;8.578;2023-05-21T03:26:27;13.80;99.90
65770;DHT22;52512;47.650;8.578;2023-05-21T03:28:55;13.80;99.90
65770;DHT22;52512;47.650;8.578;2023-05-21T03:31:22;13.80;99.90
65770;DHT22;52512;47.650;8.578;2023-05-21T03:33:48;13.70;99.90
65770;DHT22;52512;47.650;8.578;2023-05-21T03:36:13;13.70;99.90
65770;DHT22;52512;47.650;8.578;2023-05-21T03:38:39;13.70;99.90
65770;DHT22;52512;47.650;8.578;2023-05-21T03:41:08;13.70;99.90
65770;DHT22;52512;47.650;8.578;2023-05-21T03:43:34;13.70;99.90
65770;DHT22;52512;47.650;8.578;2023-05-21T03:46:00;13.60;99.90
65770;DHT22;52512;47.650;8.578;2023-05-21T03:48:25;13.60;99.90
65770;DHT22;52512;47.650;8.578;2023-05-21T03:50:51;13.60;99.90
65770;DHT22;52512;47.650;8.578;2023-05-21T03:53:17;13.60;99.90
65770;DHT22;52512;47.650;8.578;2023-05-21T03:55:43;13.50;99.90
65770;DHT22;52512;47.650;8.578;2023-05-21T03:58:08;13.50;99.90
65770;DHT22;52512;47.650;8.578;2023-05-21T04:00:35;13.50;99.90
65770;DHT22;52512;47.650;8.578;2023-05-21T04:03:02;13.50;99.90
65770;DHT22;52512;47.650;8.578;2023-05-21T04:05:28;13.50;99.90
65770;DHT22;52512;47.650;8.578;2023-05-21T04:07:54;13.50;99.90
65770;DHT22;52512;47.650;8.578;2023-05-21T04:10:19;13.40;99.90
65770;DHT22;52512;47.650;8.578;2023-05-21T04:12:46;13.50;99.90
65770;DHT22;52512;47.650;8.578;2023-05-21T04:15:13;13.50;99.90
65770;DHT22;52512;47.650;8.578;2023-05-21T04:17:43;13.50;99.90
65770;DHT22;52512;47.650;8.578;2023-05-21T04:20:11;13.50;99.90
65770;DHT22;52512;47.650;8.578;2023-05-21T04:22:38;13.40;99.90
65770;DHT22;52512;47.650;8.578;2023-05-21T04:25:04;13.40;99.90
65770;DHT22;52512;47.650;8.578;2023-05-21T04:27:30;13.40;99.90
65770;DHT22;52512;47.650;8.578;2023-05-21T04:29:55;13.40;99.90
65770;DHT22;52512;47.650;8.578;2023-05-21T04:32:22;13.40;99.90
65770;DHT22;52512;47.650;8.578;2023-05-21T04:34:48;13.40;99.90
65770;DHT22;52512;47.650;8.578;2023-05-21T04:37:14;13.40;99.90
65770;DHT22;52512;47.650;8.578;2023-05-21T04:39:42;13.40;99.90
65770;DHT22;52512;47.650;8.578;2023-05-21T04:42:08;13.40;99.90
65770;DHT22;52512;47.650;8.578;2023-05-21T04:44:35;13.40;99.90
65770;DHT22;52512;47.650;8.578;2023-05-21T04:47:02;13.40;99.90
65770;DHT22;52512;47.650;8.578;2023-05-21T04:49:28;13.40;99.90
65770;DHT22;52512;47.650;8.578;2023-05-21T04:51:54;13.40;99.90
65770;DHT22;52512;47.650;8.578;2023-05-21T04:54:21;13.40;99.90
65770;DHT22;52512;47.650;8.578;2023-05-21T04:56:46;13.40;99.90
65770;DHT22;52512;47.650;8.578;2023-05-21T04:59:13;13.40;99.90
65770;DHT22;52512;47.650;8.578;2023-05-21T05:01:38;13.50;99.90
65770;DHT22;52512;47.650;8.578;2023-05-21T05:04:04;13.50;99.90
65770;DHT22;52512;47.650;8.578;2023-05-21T05:06:30;13.50;99.90
65770;DHT22;52512;47.650;8.578;2023-05-21T05:08:56;13.50;99.90
65770;DHT22;52512;47.650;8.578;2023-05-21T05:11:22;13.50;99.90
65770;DHT22;52512;47.650;8.578;2023-05-21T05:13:48;13.50;99.90
65770;DHT22;52512;47.650;8.578;2023-05-21T05:16:14;13.50;99.90
65770;DHT22;52512;47.650;8.578;2023-05-21T05:18:42;13.50;99.90
65770;DHT22;52512;47.650;8.578;2023-05-21T05:21:08;13.50;99.90
65770;DHT22;52512;47.650;8.578;2023-05-21T05:23:33;13.50;99.90
65770;DHT22;52512;47.650;8.578;2023-05-21T05:25:59;13.50;99.90
65770;DHT22;52512;47.650;8.578;2023-05-21T05:28:25;13.50;99.90
65770;DHT22;52512;47.650;8.578;2023-05-21T05:30:50;13.60;99.90
65770;DHT22;52512;47.650;8.578;2023-05-21T05:33:16;13.60;99.90
65770;DHT22;52512;47.650;8.578;2023-05-21T05:35:42;13.60;99.90
65770;DHT22;52512;47.650;8.578;2023-05-21T05:38:07;13.60;99.90
65770;DHT22;52512;47.650;8.578;2023-05-21T05:40:33;13.60;99.90
65770;DHT22;52512;47.650;8.578;2023-05-21T05:42:59;13.60;99.90
65770;DHT22;52512;47.650;8.578;2023-05-21T05:45:24;13.60;99.90
65770;DHT22;52512;47.650;8.578;2023-05-21T05:47:51;13.70;99.90
65770;DHT22;52512;47.650;8.578;2023-05-21T05:50:16;13.70;99.90
65770;DHT22;52512;47.650;8.578;2023-05-21T05:52:42;13.70;99.90
65770;DHT22;52512;47.650;8.578;2023-05-21T05:55:08;13.70;99.90
65770;DHT22;52512;47.650;8.578;2023-05-21T05:57:36;13.70;99.90
65770;DHT22;52512;47.650;8.578;2023-05-21T06:00:03;13.70;99.90
65770;DHT22;52512;47.650;8.578;2023-05-21T06:02:29;13.80;99.90
65770;DHT22;52512;47.650;8.578;2023-05-21T06:04:54;13.80;99.90
65770;DHT22;52512;47.650;8.578;2023-05-21T06:07:20;13.80;99.90
65770;DHT22;52512;47.650;8.578;2023-05-21T06:09:46;13.90;99.90
65770;DHT22;52512;47.650;8.578;2023-05-21T06:12:11;13.90;99.90
65770;DHT22;52512;47.650;8.578;2023-05-21T06:14:40;13.90;99.90
65770;DHT22;52512;47.650;8.578;2023-05-21T06:17:06;14.00;99.90
65770;DHT22;52512;47.650;8.578;2023-05-21T06:19:32;14.00;99.90
65770;DHT22;52512;47.650;8.578;2023-05-21T06:21:57;14.00;99.90
65770;DHT22;52512;47.650;8.578;2023-05-21T06:24:23;14.10;99.90
65770;DHT22;52512;47.650;8.578;2023-05-21T06:26:49;14.10;99.90
65770;DHT22;52512;47.650;8.578;2023-05-21T06:29:14;14.10;99.90
65770;DHT22;52512;47.650;8.578;2023-05-21T06:31:41;14.20;99.90
65770;DHT22;52512;47.650;8.578;2023-05-21T06:34:07;14.20;99.90
65770;DHT22;52512;47.650;8.578;2023-05-21T06:36:34;14.30;99.90
65770;DHT22;52512;47.650;8.578;2023-05-21T06:38:59;14.40;99.90
65770;DHT22;52512;47.650;8.578;2023-05-21T06:41:26;14.40;99.90
65770;DHT22;52512;47.650;8.578;2023-05-21T06:43:52;14.50;99.90
65770;DHT22;52512;47.650;8.578;2023-05-21T06:46:18;14.50;99.90
65770;DHT22;52512;47.650;8.578;2023-05-21T06:48:43;14.60;99.90
65770;DHT22;52512;47.650;8.578;2023-05-21T06:51:11;14.70;99.90
65770;DHT22;52512;47.650;8.578;2023-05-21T06:53:36;14.70;99.90
65770;DHT22;52512;47.650;8.578;2023-05-21T06:56:02;14.80;99.90
65770;DHT22;52512;47.650;8.578;2023-05-21T06:58:28;14.80;99.90
65770;DHT22;52512;47.650;8.578;2023-05-21T07:00:56;14.90;99.90
65770;DHT22;52512;47.650;8.578;2023-05-21T07:03:22;14.90;99.90
65770;DHT22;52512;47.650;8.578;2023-05-21T07:05:48;15.00;99.90
65770;DHT22;52512;47.650;8.578;2023-05-21T07:08:13;15.00;99.90
65770;DHT22;52512;47.650;8.578;2023-05-21T07:10:39;15.10;99.90
65770;DHT22;52512;47.650;8.578;2023-05-21T07:13:06;15.10;99.90
65770;DHT22;52512;47.650;8.578;2023-05-21T07:15:31;15.10;99.90
65770;DHT22;52512;47.650;8.578;2023-05-21T07:17:57;15.20;99.90
65770;DHT22;52512;47.650;8.578;2023-05-21T07:20:23;15.20;99.90
65770;DHT22;52512;47.650;8.578;2023-05-21T07:22:48;15.30;99.90
65770;DHT22;52512;47.650;8.578;2023-05-21T07:25:14;15.30;99.90
65770;DHT22;52512;47.650;8.578;2023-05-21T07:27:40;15.40;99.90
65770;DHT22;52512;47.650;8.578;2023-05-21T07:30:08;15.40;99.90
65770;DHT22;52512;47.650;8.578;2023-05-21T07:32:33;15.50;99.90
65770;DHT22;52512;47.650;8.578;2023-05-21T07:34:59;15.50;99.90
65770;DHT22;52512;47.650;8.578;2023-05-21T07:37:28;15.60;99.90
65770;DHT22;52512;47.650;8.578;2023-05-21T07:39:56;15.70;99.90
65770;DHT22;52512;47.650;8.578;2023-05-21T07:42:25;15.70;99.90
65770;DHT22;52512;47.650;8.578;2023-05-21T07:44:51;15.80;99.90
65770;DHT22;52512;47.650;8.578;2023-05-21T07:47:17;15.90;99.90
65770;DHT22;52512;47.650;8.578;2023-05-21T07:49:43;16.00;99.90
65770;DHT22;52512;47.650;8.578;2023-05-21T07:52:08;16.00;99.90
65770;DHT22;52512;47.650;8.578;2023-05-21T07:54:34;16.20;99.90
65770;DHT22;52512;47.650;8.578;2023-05-21T07:57:00;16.30;99.90
65770;DHT22;52512;47.650;8.578;2023-05-21T07:59:28;16.40;99.90
65770;DHT22;52512;47.650;8.578;2023-05-21T08:01:54;16.50;99.90
65770;DHT22;52512;47.650;8.578;2023-05-21T08:04:20;16.60;99.90
65770;DHT22;52512;47.650;8.578;2023-05-21T08:06:45;16.70;99.90
65770;DHT22;52512;47.650;8.578;2023-05-21T08:09:13;16.80;99.90
65770;DHT22;52512;47.650;8.578;2023-05-21T08:11:41;16.90;99.90
65770;DHT22;52512;47.650;8.578;2023-05-21T08:14:06;17.00;99.90
65770;DHT22;52512;47.650;8.578;2023-05-21T08:16:32;17.10;99.90
65770;DHT22;52512;47.650;8.578;2023-05-21T08:18:58;17.30;99.90
65770;DHT22;52512;47.650;8.578;2023-05-21T08:21:32;17.40;99.90
65770;DHT22;52512;47.650;8.578;2023-05-21T08:23:59;17.50;99.90
65770;DHT22;52512;47.650;8.578;2023-05-21T08:26:29;17.70;99.90
65770;DHT22;52512;47.650;8.578;2023-05-21T08:29:14;17.70;99.90
65770;DHT22;52512;47.650;8.578;2023-05-21T08:31:43;17.90;99.90
65770;DHT22;52512;47.650;8.578;2023-05-21T08:34:08;18.00;99.90
65770;DHT22;52512;47.650;8.578;2023-05-21T08:36:37;18.10;99.90
65770;DHT22;52512;47.650;8.578;2023-05-21T08:39:03;18.20;99.90
65770;DHT22;52512;47.650;8.578;2023-05-21T08:41:30;18.40;99.90
65770;DHT22;52512;47.650;8.578;2023-05-21T08:44:00;18.50;99.90
65770;DHT22;52512;47.650;8.578;2023-05-21T08:46:31;18.60;99.90
65770;DHT22;52512;47.650;8.578;2023-05-21T08:49:01;18.70;99.90
65770;DHT22;52512;47.650;8.578;2023-05-21T08:51:28;18.80;99.90
65770;DHT22;52512;47.650;8.578;2023-05-21T08:53:54;18.90;99.90
65770;DHT22;52512;47.650;8.578;2023-05-21T08:56:21;19.00;99.90
65770;DHT22;52512;47.650;8.578;2023-05-21T08:58:48;19.10;99.90
65770;DHT22;52512;47.650;8.578;2023-05-21T09:01:13;19.20;99.90
65770;DHT22;52512;47.650;8.578;2023-05-21T09:03:43;19.30;99.90
65770;DHT22;52512;47.650;8.578;2023-05-21T09:06:11;19.40;99.90
65770;DHT22;52512;47.650;8.578;2023-05-21T09:08:43;19.40;99.90
65770;DHT22;52512;47.650;8.578;2023-05-21T09:11:10;19.50;99.90
65770;DHT22;52512;47.650;8.578;2023-05-21T09:13:37;19.70;99.90
65770;DHT22;52512;47.650;8.578;2023-05-21T09:16:03;19.70;99.90
65770;DHT22;52512;47.650;8.578;2023-05-21T09:18:30;19.80;99.90
65770;DHT22;52512;47.650;8.578;2023-05-21T09:20:55;19.90;99.90
65770;DHT22;52512;47.650;8.578;2023-05-21T09:23:21;19.90;99.90
65770;DHT22;52512;47.650;8.578;2023-05-21T09:25:48;20.10;99.90
65770;DHT22;52512;47.650;8.578;2023-05-21T09:28:15;20.20;99.90
65770;DHT22;52512;47.650;8.578;2023-05-21T09:30:51;20.30;99.90
65770;DHT22;52512;47.650;8.578;2023-05-21T09:33:27;20.30;99.90
65770;DHT22;52512;47.650;8.578;2023-05-21T09:35:56;20.40;99.90
65770;DHT22;52512;47.650;8.578;2023-05-21T09:38:22;20.50;99.90
65770;DHT22;52512;47.650;8.578;2023-05-21T09:40:50;20.60;99.90
65770;DHT22;52512;47.650;8.578;2023-05-21T09:43:16;20.60;99.90
65770;DHT22;52512;47.650;8.578;2023-05-21T09:45:54;20.70;99.90
65770;DHT22;52512;47.650;8.578;2023-05-21T09:48:45;20.80;99.90
65770;DHT22;52512;47.650;8.578;2023-05-21T09:51:14;20.90;99.90
65770;DHT22;52512;47.650;8.578;2023-05-21T09:53:52;21.00;99.90
65770;DHT22;52512;47.650;8.578;2023-05-21T09:56:28;21.00;99.90
65770;DHT22;52512;47.650;8.578;2023-05-21T09:59:02;21.20;99.90
65770;DHT22;52512;47.650;8.578;2023-05-21T10:01:37;21.40;99.90
65770;DHT22;52512;47.650;8.578;2023-05-21T10:15:16;21.90;99.90
65770;DHT22;52512;47.650;8.578;2023-05-21T10:17:48;22.00;99.90
65770;DHT22;52512;47.650;8.578;2023-05-21T10:20:17;22.10;99.90
65770;DHT22;52512;47.650;8.578;2023-05-21T10:22:49;22.20;99.90
65770;DHT22;52512;47.650;8.578;2023-05-21T10:25:25;22.30;99.90
65770;DHT22;52512;47.650;8.578;2023-05-21T10:27:53;22.40;99.90
65770;DHT22;52512;47.650;8.578;2023-05-21T10:30:20;22.50;99.90
65770;DHT22;52512;47.650;8.578;2023-05-21T10:32:50;22.60;99.90
65770;DHT22;52512;47.650;8.578;2023-05-21T10:35:16;22.70;99.90
65770;DHT22;52512;47.650;8.578;2023-05-21T10:37:45;22.70;99.90
65770;DHT22;52512;47.650;8.578;2023-05-21T10:40:11;22.80;99.90
65770;DHT22;52512;47.650;8.578;2023-05-21T10:42:50;22.80;99.90
65770;DHT22;52512;47.650;8.578;2023-05-21T10:51:41;23.10;99.90
65770;DHT22;52512;47.650;8.578;2023-05-21T10:56:47;23.40;99.90
65770;DHT22;52512;47.650;8.578;2023-05-21T11:01:49;23.40;99.90
65770;DHT22;52512;47.650;8.578;2023-05-21T11:04:29;23.40;99.90
65770;DHT22;52512;47.650;8.578;2023-05-21T11:06:55;23.40;99.90
65770;DHT22;52512;47.650;8.578;2023-05-21T11:09:22;23.50;99.90
65770;DHT22;52512;47.650;8.578;2023-05-21T11:11:55;23.60;99.90
65770;DHT22;52512;47.650;8.578;2023-05-21T11:14:39;23.60;99.90
65770;DHT22;52512;47.650;8.578;2023-05-21T11:22:19;23.90;99.90
65770;DHT22;52512;47.650;8.578;2023-05-21T11:24:45;23.90;99.90
65770;DHT22;52512;47.650;8.578;2023-05-21T11:27:11;24.00;99.90
65770;DHT22;52512;47.650;8.578;2023-05-21T11:29:42;24.10;99.90
65770;DHT22;52512;47.650;8.578;2023-05-21T11:32:11;24.10;99.90
65770;DHT22;52512;47.650;8.578;2023-05-21T11:39:45;24.20;99.90
65770;DHT22;52512;47.650;8.578;2023-05-21T11:42:12;24.20;99.90
65770;DHT22;52512;47.650;8.578;2023-05-21T11:44:38;24.30;99.90
65770;DHT22;52512;47.650;8.578;2023-05-21T11:47:05;24.30;99.90
65770;DHT22;52512;47.650;8.578;2023-05-21T11:49:31;24.40;99.90
65770;DHT22;52512;47.650;8.578;2023-05-21T11:51:59;24.40;99.90
65770;DHT22;52512;47.650;8.578;2023-05-21T11:54:25;24.40;99.90
65770;DHT22;52512;47.650;8.578;2023-05-21T11:56:52;24.40;99.90
65770;DHT22;52512;47.650;8.578;2023-05-21T11:59:18;24.50;99.90
65770;DHT22;52512;47.650;8.578;2023-05-21T12:01:44;24.50;99.90
65770;DHT22;52512;47.650;8.578;2023-05-21T12:04:10;24.60;99.90
65770;DHT22;52512;47.650;8.578;2023-05-21T12:06:37;24.60;99.90
65770;DHT22;52512;47.650;8.578;2023-05-21T12:09:09;24.60;99.90
65770;DHT22;52512;47.650;8.578;2023-05-21T12:11:38;24.60;99.90
65770;DHT22;52512;47.650;8.578;2023-05-21T12:14:07;24.70;99.90
65770;DHT22;52512;47.650;8.578;2023-05-21T12:16:34;24.70;99.90
65770;DHT22;52512;47.650;8.578;2023-05-21T12:19:01;24.70;99.90
65770;DHT22;52512;47.650;8.578;2023-05-21T12:21:28;24.70;99.90
65770;DHT22;52512;47.650;8.578;2023-05-21T12:23:54;24.70;99.90
65770;DHT22;52512;47.650;8.578;2023-05-21T12:26:21;24.70;99.90
65770;DHT22;52512;47.650;8.578;2023-05-21T12:28:52;24.70;99.90
65770;DHT22;52512;47.650;8.578;2023-05-21T12:31:19;24.70;99.90
65770;DHT22;52512;47.650;8.578;2023-05-21T12:33:48;24.80;99.90
65770;DHT22;52512;47.650;8.578;2023-05-21T12:36:41;24.80;99.90
65770;DHT22;52512;47.650;8.578;2023-05-21T12:39:10;24.90;99.90
65770;DHT22;52512;47.650;8.578;2023-05-21T12:41:36;24.80;99.90
65770;DHT22;52512;47.650;8.578;2023-05-21T12:44:02;24.80;99.90
65770;DHT22;52512;47.650;8.578;2023-05-21T12:46:30;24.80;99.90
65770;DHT22;52512;47.650;8.578;2023-05-21T12:48:56;24.80;99.90
65770;DHT22;52512;47.650;8.578;2023-05-21T12:51:23;24.90;99.90
65770;DHT22;52512;47.650;8.578;2023-05-21T12:53:49;24.90;99.90
65770;DHT22;52512;47.650;8.578;2023-05-21T12:56:16;24.90;99.80
65770;DHT22;52512;47.650;8.578;2023-05-21T12:58:48;24.90;99.40
65770;DHT22;52512;47.650;8.578;2023-05-21T13:01:14;24.90;98.20
65770;DHT22;52512;47.650;8.578;2023-05-21T13:03:40;24.90;98.30
65770;DHT22;52512;47.650;8.578;2023-05-21T13:06:07;24.80;98.00
65770;DHT22;52512;47.650;8.578;2023-05-21T13:08:35;24.80;98.40
65770;DHT22;52512;47.650;8.578;2023-05-21T13:11:02;24.90;97.80
65770;DHT22;52512;47.650;8.578;2023-05-21T13:13:29;24.90;97.60
65770;DHT22;52512;47.650;8.578;2023-05-21T13:15:55;24.90;97.70
65770;DHT22;52512;47.650;8.578;2023-05-21T13:18:21;24.90;97.70
65770;DHT22;52512;47.650;8.578;2023-05-21T13:20:47;25.00;97.50
65770;DHT22;52512;47.650;8.578;2023-05-21T13:23:14;24.90;97.70
65770;DHT22;52512;47.650;8.578;2023-05-21T13:25:42;24.90;97.50
65770;DHT22;52512;47.650;8.578;2023-05-21T13:28:09;25.00;96.60
65770;DHT22;52512;47.650;8.578;2023-05-21T13:30:39;25.00;96.60
65770;DHT22;52512;47.650;8.578;2023-05-21T13:33:05;24.90;96.40
65770;DHT22;52512;47.650;8.578;2023-05-21T13:35:31;25.00;96.20
65770;DHT22;52512;47.650;8.578;2023-05-21T13:37:56;25.00;96.60
65770;DHT22;52512;47.650;8.578;2023-05-21T13:40:22;25.00;95.20
65770;DHT22;52512;47.650;8.578;2023-05-21T13:42:49;25.00;95.50
65770;DHT22;52512;47.650;8.578;2023-05-21T13:45:18;25.00;96.20
65770;DHT22;52512;47.650;8.578;2023-05-21T13:47:45;25.00;95.60
65770;DHT22;52512;47.650;8.578;2023-05-21T13:50:11;25.00;96.10
65770;DHT22;52512;47.650;8.578;2023-05-21T13:52:37;25.10;95.90
65770;DHT22;52512;47.650;8.578;2023-05-21T13:55:03;25.10;95.30
65770;DHT22;52512;47.650;8.578;2023-05-21T13:57:29;25.10;95.00
65770;DHT22;52512;47.650;8.578;2023-05-21T13:59:58;25.20;92.40
65770;DHT22;52512;47.650;8.578;2023-05-21T14:02:24;25.30;93.20
65770;DHT22;52512;47.650;8.578;2023-05-21T14:04:50;25.40;94.60
65770;DHT22;52512;47.650;8.578;2023-05-21T14:07:16;25.40;94.80
65770;DHT22;52512;47.650;8.578;2023-05-21T14:09:41;25.40;96.10
65770;DHT22;52512;47.650;8.578;2023-05-21T14:12:07;25.40;94.20
65770;DHT22;52512;47.650;8.578;2023-05-21T14:14:33;25.40;95.10
65770;DHT22;52512;47.650;8.578;2023-05-21T14:16:59;25.40;95.30
65770;DHT22;52512;47.650;8.578;2023-05-21T14:19:25;25.40;94.90
65770;DHT22;52512;47.650;8.578;2023-05-21T14:21:51;25.40;95.20
65770;DHT22;52512;47.650;8.578;2023-05-21T14:24:17;25.40;94.20
65770;DHT22;52512;47.650;8.578;2023-05-21T14:26:43;25.40;94.30
65770;DHT22;52512;47.650;8.578;2023-05-21T14:29:09;25.40;94.70
65770;DHT22;52512;47.650;8.578;2023-05-21T14:31:35;25.40;95.60
65770;DHT22;52512;47.650;8.578;2023-05-21T14:34:01;25.40;95.20
65770;DHT22;52512;47.650;8.578;2023-05-21T14:36:31;25.40;95.60
65770;DHT22;52512;47.650;8.578;2023-05-21T14:38:56;25.40;95.80
65770;DHT22;52512;47.650;8.578;2023-05-21T14:41:26;25.50;96.00
65770;DHT22;52512;47.650;8.578;2023-05-21T14:43:56;25.50;95.20
65770;DHT22;52512;47.650;8.578;2023-05-21T14:46:21;25.40;96.00
65770;DHT22;52512;47.650;8.578;2023-05-21T14:48:47;25.50;96.40
65770;DHT22;52512;47.650;8.578;2023-05-21T14:51:13;25.60;96.40
65770;DHT22;52512;47.650;8.578;2023-05-21T14:53:39;25.60;96.10
65770;DHT22;52512;47.650;8.578;2023-05-21T14:56:05;25.60;96.50
65770;DHT22;52512;47.650;8.578;2023-05-21T14:58:31;25.60;96.60
65770;DHT22;52512;47.650;8.578;2023-05-21T15:00:57;25.60;96.70
65770;DHT22;52512;47.650;8.578;2023-05-21T15:03:23;25.60;97.10
65770;DHT22;52512;47.650;8.578;2023-05-21T15:05:49;25.60;97.30
65770;DHT22;52512;47.650;8.578;2023-05-21T15:08:14;25.60;96.70
65770;DHT22;52512;47.650;8.578;2023-05-21T15:10:40;25.60;96.50
65770;DHT22;52512;47.650;8.578;2023-05-21T15:13:06;25.60;96.40
65770;DHT22;52512;47.650;8.578;2023-05-21T15:15:31;25.60;96.60
65770;DHT22;52512;47.650;8.578;2023-05-21T15:17:57;25.60;95.60
65770;DHT22;52512;47.650;8.578;2023-05-21T15:20:23;25.60;95.20
65770;DHT22;52512;47.650;8.578;2023-05-21T15:22:48;25.60;95.50
65770;DHT22;52512;47.650;8.578;2023-05-21T15:25:14;25.70;96.50
65770;DHT22;52512;47.650;8.578;2023-05-21T15:27:43;25.70;95.40
65770;DHT22;52512;47.650;8.578;2023-05-21T15:30:09;25.60;94.80
65770;DHT22;52512;47.650;8.578;2023-05-21T15:32:34;25.60;94.30
65770;DHT22;52512;47.650;8.578;2023-05-21T15:35:00;25.70;93.90
65770;DHT22;52512;47.650;8.578;2023-05-21T15:37:26;25.60;93.40
65770;DHT22;52512;47.650;8.578;2023-05-21T15:39:56;25.60;93.50
65770;DHT22;52512;47.650;8.578;2023-05-21T15:42:22;25.60;92.60
65770;DHT22;52512;47.650;8.578;2023-05-21T15:44:47;25.50;92.90
65770;DHT22;52512;47.650;8.578;2023-05-21T15:47:13;25.50;92.90
65770;DHT22;52512;47.650;8.578;2023-05-21T15:49:42;25.40;92.20
65770;DHT22;52512;47.650;8.578;2023-05-21T15:52:08;25.30;92.20
65770;DHT22;52512;47.650;8.578;2023-05-21T15:54:33;25.30;92.50
65770;DHT22;52512;47.650;8.578;2023-05-21T15:56:59;25.30;91.60
65770;DHT22;52512;47.650;8.578;2023-05-21T15:59:25;25.30;91.70
65770;DHT22;52512;47.650;8.578;2023-05-21T16:01:52;25.30;91.40
65770;DHT22;52512;47.650;8.578;2023-05-21T16:04:17;25.30;91.60